sensor_id;sensor_type;location;lat;lon;timestamp;temperature;humidity
22765;DHT22;11549;50.852;3.816;2022-11-15T00:01:17;12.00;99.90
22765;DHT22;11549;50.852;3.816;2022-11-15T00:03:46;12.00;99.90
22765;DHT22;11549;50.852;3.816;2022-11-15T00:06:14;12.10;99.90
22765;DHT22;11549;50.852;3.816;2022-11-15T00:08:43;12.10;99.90
22765;DHT22;11549;50.852;3.816;2022-11-15T00:11:12;12.10;99.90
22765;DHT22;11549;50.852;3.816;2022-11-15T00:13:40;12.10;99.90
22765;DHT22;11549;50.852;3.816;2022-11-15T00:16:09;12.10;99.90
22765;DHT22;11549;50.852;3.816;2022-11-15T00:18:39;12.20;99.90
22765;DHT22;11549;50.852;3.816;2022-11-15T00:21:15;12.20;99.90
22765;DHT22;11549;50.852;3.816;2022-11-15T00:23:43;12.20;99.90
22765;DHT22;11549;50.852;3.816;2022-11-15T00:26:13;12.20;99.90
22765;DHT22;11549;50.852;3.816;2022-11-15T00:28:42;12.20;99.90
22765;DHT22;11549;50.852;3.816;2022-11-15T00:31:12;12.20;99.90
22765;DHT22;11549;50.852;3.816;2022-11-15T00:33:44;12.10;99.90
22765;DHT22;11549;50.852;3.816;2022-11-15T00:36:13;12.20;99.90
22765;DHT22;11549;50.852;3.816;2022-11-15T00:38:41;12.10;99.90
22765;DHT22;11549;50.852;3.816;2022-11-15T00:41:09;12.10;99.90
22765;DHT22;11549;50.852;3.816;2022-11-15T00:43:38;12.20;99.90
22765;DHT22;11549;50.852;3.816;2022-11-15T00:46:07;12.20;99.90
22765;DHT22;11549;50.852;3.816;2022-11-15T00:48:36;12.20;99.90
22765;DHT22;11549;50.852;3.816;2022-11-15T00:51:06;12.20;99.90
22765;DHT22;11549;50.852;3.816;2022-11-15T00:53:34;12.20;99.90
22765;DHT22;11549;50.852;3.816;2022-11-15T00:56:03;12.30;99.90
22765;DHT22;11549;50.852;3.816;2022-11-15T00:58:31;12.30;99.90
22765;DHT22;11549;50.852;3.816;2022-11-15T01:01:10;12.30;99.90
22765;DHT22;11549;50.852;3.816;2022-11-15T01:03:40;12.30;99.90
22765;DHT22;11549;50.852;3.816;2022-11-15T01:06:10;12.30;99.90
22765;DHT22;11549;50.852;3.816;2022-11-15T01:08:39;12.30;99.90
22765;DHT22;11549;50.852;3.816;2022-11-15T01:11:10;12.40;99.90
22765;DHT22;11549;50.852;3.816;2022-11-15T01:13:39;12.30;99.90
22765;DHT22;11549;50.852;3.816;2022-11-15T01:16:08;12.20;99.90
22765;DHT22;11549;50.852;3.816;2022-11-15T01:18:37;12.30;99.90
22765;DHT22;11549;50.852;3.816;2022-11-15T01:21:08;12.30;99.90
22765;DHT22;11549;50.852;3.816;2022-11-15T01:23:37;12.20;99.90
22765;DHT22;11549;50.852;3.816;2022-11-15T01:26:09;12.20;99.90
22765;DHT22;11549;50.852;3.816;2022-11-15T01:28:39;12.30;99.90
22765;DHT22;11549;50.852;3.816;2022-11-15T01:31:12;12.40;99.90
22765;DHT22;11549;50.852;3.816;2022-11-15T01:33:40;12.30;99.90
22765;DHT22;11549;50.852;3.816;2022-11-15T01:36:12;12.20;99.90
22765;DHT22;11549;50.852;3.816;2022-11-15T01:38:41;12.20;99.90
22765;DHT22;11549;50.852;3.816;2022-11-15T01:41:17;12.20;99.90
22765;DHT22;11549;50.852;3.816;2022-11-15T01:43:47;12.20;99.90
22765;DHT22;11549;50.852;3.816;2022-11-15T01:46:27;12.20;99.90
22765;DHT22;11549;50.852;3.816;2022-11-15T01:49:00;12.20;99.90
22765;DHT22;11549;50.852;3.816;2022-11-15T01:51:33;12.20;99.90
22765;DHT22;11549;50.852;3.816;2022-11-15T01:54:04;12.10;99.90
22765;DHT22;11549;50.852;3.816;2022-11-15T01:56:38;12.10;99.90
22765;DHT22;11549;50.852;3.816;2022-11-15T01:59:11;12.10;99.90
22765;DHT22;11549;50.852;3.816;2022-11-15T02:01:40;12.20;99.90
22765;DHT22;11549;50.852;3.816;2022-11-15T02:04:14;12.30;99.90
22765;DHT22;11549;50.852;3.816;2022-11-15T02:06:45;12.30;99.90
22765;DHT22;11549;50.852;3.816;2022-11-15T02:09:15;12.30;99.90
22765;DHT22;11549;50.852;3.816;2022-11-15T02:11:44;12.20;99.90
22765;DHT22;11549;50.852;3.816;2022-11-15T02:14:16;12.20;99.90
22765;DHT22;11549;50.852;3.816;2022-11-15T02:16:51;12.20;99.90
22765;DHT22;11549;50.852;3.816;2022-11-15T02:19:36;12.20;99.90
22765;DHT22;11549;50.852;3.816;2022-11-15T02:22:21;12.20;99.90
22765;DHT22;11549;50.852;3.816;2022-11-15T02:25:08;12.10;99.90
22765;DHT22;11549;50.852;3.816;2022-11-15T02:28:08;12.10;99.90
22765;DHT22;11549;50.852;3.816;2022-11-15T02:30:42;12.10;99.90
22765;DHT22;11549;50.852;3.816;2022-11-15T02:33:19;12.10;99.90
22765;DHT22;11549;50.852;3.816;2022-11-15T02:35:57;12.00;99.90
22765;DHT22;11549;50.852;3.816;2022-11-15T02:38:31;12.10;99.90
22765;DHT22;11549;50.852;3.816;2022-11-15T02:41:04;12.10;99.90
22765;DHT22;11549;50.852;3.816;2022-11-15T02:43:37;12.00;99.90
22765;DHT22;11549;50.852;3.816;2022-11-15T02:46:32;12.00;99.90
22765;DHT22;11549;50.852;3.816;2022-11-15T02:49:19;12.00;99.90
22765;DHT22;11549;50.852;3.816;2022-11-15T02:51:49;11.90;99.90
22765;DHT22;11549;50.852;3.816;2022-11-15T02:54:21;11.90;99.90
22765;DHT22;11549;50.852;3.816;2022-11-15T02:56:52;11.90;99.90
22765;DHT22;11549;50.852;3.816;2022-11-15T03:02:28;11.90;99.90
22765;DHT22;11549;50.852;3.816;2022-11-15T03:05:06;11.90;99.90
22765;DHT22;11549;50.852;3.816;2022-11-15T03:07:40;11.90;99.90
22765;DHT22;11549;50.852;3.816;2022-11-15T03:10:18;11.90;99.90
22765;DHT22;11549;50.852;3.816;2022-11-15T03:12:54;11.90;99.90
22765;DHT22;11549;50.852;3.816;2022-11-15T03:15:26;11.90;99.90
22765;DHT22;11549;50.852;3.816;2022-11-15T03:18:00;11.90;99.90
22765;DHT22;11549;50.852;3.816;2022-11-15T03:20:30;11.80;99.90
22765;DHT22;11549;50.852;3.816;2022-11-15T03:23:03;11.90;99.90
22765;DHT22;11549;50.852;3.816;2022-11-15T03:25:36;11.80;99.90
22765;DHT22;11549;50.852;3.816;2022-11-15T03:28:07;11.80;99.90
22765;DHT22;11549;50.852;3.816;2022-11-15T03:30:38;11.80;99.90
22765;DHT22;11549;50.852;3.816;2022-11-15T03:33:10;11.70;99.90
22765;DHT22;11549;50.852;3.816;2022-11-15T03:35:41;11.70;99.90
22765;DHT22;11549;50.852;3.816;2022-11-15T03:38:15;11.60;99.90
22765;DHT22;11549;50.852;3.816;2022-11-15T03:40:49;11.60;99.90
22765;DHT22;11549;50.852;3.816;2022-11-15T03:43:26;11.70;99.90
22765;DHT22;11549;50.852;3.816;2022-11-15T03:46:00;11.60;99.90
22765;DHT22;11549;50.852;3.816;2022-11-15T03:48:34;11.60;99.90
22765;DHT22;11549;50.852;3.816;2022-11-15T03:51:04;11.50;99.90
22765;DHT22;11549;50.852;3.816;2022-11-15T03:53:33;11.70;99.90
22765;DHT22;11549;50.852;3.816;2022-11-15T03:56:01;11.60;99.90
22765;DHT22;11549;50.852;3.816;2022-11-15T03:58:29;11.60;99.90
22765;DHT22;11549;50.852;3.816;2022-11-15T04:00:57;11.60;99.90
22765;DHT22;11549;50.852;3.816;2022-11-15T04:03:31;11.60;99.90
22765;DHT22;11549;50.852;3.816;2022-11-15T04:06:00;11.70;99.90
22765;DHT22;11549;50.852;3.816;2022-11-15T04:08:28;11.60;99.90
22765;DHT22;11549;50.852;3.816;2022-11-15T04:10:57;11.50;99.90
22765;DHT22;11549;50.852;3.816;2022-11-15T04:13:28;11.40;99.90
22765;DHT22;11549;50.852;3.816;2022-11-15T04:15:56;11.40;99.90
22765;DHT22;11549;50.852;3.816;2022-11-15T04:18:25;11.40;99.90
22765;DHT22;11549;50.852;3.816;2022-11-15T04:20:54;11.30;99.90
22765;DHT22;11549;50.852;3.816;2022-11-15T04:23:40;11.30;99.90
22765;DHT22;11549;50.852;3.816;2022-11-15T04:26:28;11.20;99.90
22765;DHT22;11549;50.852;3.816;2022-11-15T04:28:56;11.20;99.90
22765;DHT22;11549;50.852;3.816;2022-11-15T04:31:42;11.10;99.90
22765;DHT22;11549;50.852;3.816;2022-11-15T04:34:10;11.00;99.90
22765;DHT22;11549;50.852;3.816;2022-11-15T04:36:39;11.00;99.90
22765;DHT22;11549;50.852;3.816;2022-11-15T04:39:25;11.10;99.90
22765;DHT22;11549;50.852;3.816;2022-11-15T04:41:53;11.00;99.90
22765;DHT22;11549;50.852;3.816;2022-11-15T04:44:21;11.00;99.90
22765;DHT22;11549;50.852;3.816;2022-11-15T04:46:50;11.00;99.90
22765;DHT22;11549;50.852;3.816;2022-11-15T04:49:18;10.90;99.90
22765;DHT22;11549;50.852;3.816;2022-11-15T04:51:48;10.90;99.90
22765;DHT22;11549;50.852;3.816;2022-11-15T04:54:16;10.90;99.90
22765;DHT22;11549;50.852;3.816;2022-11-15T04:56:44;10.90;99.90
22765;DHT22;11549;50.852;3.816;2022-11-15T04:59:13;10.90;99.90
22765;DHT22;11549;50.852;3.816;2022-11-15T05:01:41;10.80;99.90
22765;DHT22;11549;50.852;3.816;2022-11-15T05:04:11;10.80;99.90
22765;DHT22;11549;50.852;3.816;2022-11-15T05:06:50;10.70;99.90
22765;DHT22;11549;50.852;3.816;2022-11-15T05:09:19;10.60;99.90
22765;DHT22;11549;50.852;3.816;2022-11-15T05:11:48;10.60;99.90
22765;DHT22;11549;50.852;3.816;2022-11-15T05:14:17;10.60;99.90
22765;DHT22;11549;50.852;3.816;2022-11-15T05:16:45;10.50;99.90
22765;DHT22;11549;50.852;3.816;2022-11-15T05:19:14;10.40;99.90
22765;DHT22;11549;50.852;3.816;2022-11-15T05:21:42;10.50;99.90
22765;DHT22;11549;50.852;3.816;2022-11-15T05:24:11;10.60;99.90
22765;DHT22;11549;50.852;3.816;2022-11-15T05:26:40;10.50;99.90
22765;DHT22;11549;50.852;3.816;2022-11-15T05:29:09;10.40;99.90
22765;DHT22;11549;50.852;3.816;2022-11-15T05:31:40;10.40;99.90
22765;DHT22;11549;50.852;3.816;2022-11-15T05:34:09;10.40;99.90
22765;DHT22;11549;50.852;3.816;2022-11-15T05:36:39;10.40;99.90
22765;DHT22;11549;50.852;3.816;2022-11-15T05:39:10;10.40;99.90
22765;DHT22;11549;50.852;3.816;2022-11-15T05:41:41;10.50;99.90
22765;DHT22;11549;50.852;3.816;2022-11-15T05:44:13;10.50;99.90
22765;DHT22;11549;50.852;3.816;2022-11-15T05:46:43;10.50;99.90
22765;DHT22;11549;50.852;3.816;2022-11-15T05:49:14;10.60;99.90
22765;DHT22;11549;50.852;3.816;2022-11-15T05:51:44;10.50;99.90
22765;DHT22;11549;50.852;3.816;2022-11-15T05:54:16;10.50;99.90
22765;DHT22;11549;50.852;3.816;2022-11-15T05:56:46;10.50;99.90
22765;DHT22;11549;50.852;3.816;2022-11-15T05:59:14;10.50;99.90
22765;DHT22;11549;50.852;3.816;2022-11-15T06:01:42;10.30;99.90
22765;DHT22;11549;50.852;3.816;2022-11-15T06:04:12;10.20;99.90
22765;DHT22;11549;50.852;3.816;2022-11-15T06:06:40;10.20;99.90
22765;DHT22;11549;50.852;3.816;2022-11-15T06:09:08;10.30;99.90
22765;DHT22;11549;50.852;3.816;2022-11-15T06:11:38;10.30;99.90
22765;DHT22;11549;50.852;3.816;2022-11-15T06:14:06;10.30;99.90
22765;DHT22;11549;50.852;3.816;2022-11-15T06:16:34;10.30;99.90
22765;DHT22;11549;50.852;3.816;2022-11-15T06:19:03;10.20;99.90
22765;DHT22;11549;50.852;3.816;2022-11-15T06:21:31;10.30;99.90
22765;DHT22;11549;50.852;3.816;2022-11-15T06:23:59;10.30;99.90
22765;DHT22;11549;50.852;3.816;2022-11-15T06:26:27;10.20;99.90
22765;DHT22;11549;50.852;3.816;2022-11-15T06:28:57;10.10;99.90
22765;DHT22;11549;50.852;3.816;2022-11-15T06:31:25;10.00;99.90
22765;DHT22;11549;50.852;3.816;2022-11-15T06:33:53;10.00;99.90
22765;DHT22;11549;50.852;3.816;2022-11-15T06:36:22;10.00;99.90
22765;DHT22;11549;50.852;3.816;2022-11-15T06:38:50;10.00;99.90
22765;DHT22;11549;50.852;3.816;2022-11-15T06:41:18;9.90;99.90
22765;DHT22;11549;50.852;3.816;2022-11-15T06:43:47;9.90;99.90
22765;DHT22;11549;50.852;3.816;2022-11-15T06:46:17;9.90;99.90
22765;DHT22;11549;50.852;3.816;2022-11-15T06:48:45;9.90;99.90
22765;DHT22;11549;50.852;3.816;2022-11-15T06:51:13;9.80;99.90
22765;DHT22;11549;50.852;3.816;2022-11-15T06:53:42;9.90;99.90
22765;DHT22;11549;50.852;3.816;2022-11-15T06:56:10;9.80;99.90
22765;DHT22;11549;50.852;3.816;2022-11-15T06:58:38;9.70;99.90
22765;DHT22;11549;50.852;3.816;2022-11-15T07:01:08;9.80;99.90
22765;DHT22;11549;50.852;3.816;2022-11-15T07:03:40;9.70;99.90
22765;DHT22;11549;50.852;3.816;2022-11-15T07:06:09;9.60;99.90
22765;DHT22;11549;50.852;3.816;2022-11-15T07:08:38;9.60;99.90
22765;DHT22;11549;50.852;3.816;2022-11-15T07:11:08;9.50;99.90
22765;DHT22;11549;50.852;3.816;2022-11-15T07:13:37;9.50;99.90
22765;DHT22;11549;50.852;3.816;2022-11-15T07:16:07;9.50;99.90
22765;DHT22;11549;50.852;3.816;2022-11-15T07:18:38;9.50;99.90
22765;DHT22;11549;50.852;3.816;2022-11-15T07:21:08;9.30;99.90
22765;DHT22;11549;50.852;3.816;2022-11-15T07:23:37;9.40;99.90
22765;DHT22;11549;50.852;3.816;2022-11-15T07:26:06;9.20;99.90
22765;DHT22;11549;50.852;3.816;2022-11-15T07:28:35;9.40;99.90
22765;DHT22;11549;50.852;3.816;2022-11-15T07:31:04;9.50;99.90
22765;DHT22;11549;50.852;3.816;2022-11-15T07:33:33;9.50;99.90
22765;DHT22;11549;50.852;3.816;2022-11-15T07:36:04;9.50;99.90
22765;DHT22;11549;50.852;3.816;2022-11-15T07:38:33;9.60;99.90
22765;DHT22;11549;50.852;3.816;2022-11-15T07:41:08;9.40;99.90
22765;DHT22;11549;50.852;3.816;2022-11-15T07:43:37;9.50;99.90
22765;DHT22;11549;50.852;3.816;2022-11-15T07:46:08;9.60;99.90
22765;DHT22;11549;50.852;3.816;2022-11-15T07:48:37;9.70;99.90
22765;DHT22;11549;50.852;3.816;2022-11-15T07:51:12;9.90;99.90
22765;DHT22;11549;50.852;3.816;2022-11-15T07:53:42;10.00;99.90
22765;DHT22;11549;50.852;3.816;2022-11-15T07:56:10;10.00;99.90
22765;DHT22;11549;50.852;3.816;2022-11-15T07:58:39;10.20;99.90
22765;DHT22;11549;50.852;3.816;2022-11-15T08:01:09;10.30;99.90
22765;DHT22;11549;50.852;3.816;2022-11-15T08:03:38;10.50;99.90
22765;DHT22;11549;50.852;3.816;2022-11-15T08:06:06;10.70;99.90
22765;DHT22;11549;50.852;3.816;2022-11-15T08:08:36;10.60;99.90
22765;DHT22;11549;50.852;3.816;2022-11-15T08:11:04;10.80;99.90
22765;DHT22;11549;50.852;3.816;2022-11-15T08:13:33;11.10;99.90
22765;DHT22;11549;50.852;3.816;2022-11-15T08:16:02;11.30;99.90
22765;DHT22;11549;50.852;3.816;2022-11-15T08:18:32;11.30;99.90
22765;DHT22;11549;50.852;3.816;2022-11-15T08:21:01;11.20;99.90
22765;DHT22;11549;50.852;3.816;2022-11-15T08:23:30;11.20;99.90
22765;DHT22;11549;50.852;3.816;2022-11-15T08:29:52;11.40;99.90
22765;DHT22;11549;50.852;3.816;2022-11-15T08:32:25;10.90;99.90
22765;DHT22;11549;50.852;3.816;2022-11-15T08:34:53;10.90;99.90
22765;DHT22;11549;50.852;3.816;2022-11-15T08:37:22;11.10;99.90
22765;DHT22;11549;50.852;3.816;2022-11-15T08:39:50;11.00;99.90
22765;DHT22;11549;50.852;3.816;2022-11-15T08:42:18;10.90;99.90
22765;DHT22;11549;50.852;3.816;2022-11-15T08:44:46;10.90;99.90
22765;DHT22;11549;50.852;3.816;2022-11-15T08:47:16;11.00;99.90
22765;DHT22;11549;50.852;3.816;2022-11-15T08:49:44;11.20;99.90
22765;DHT22;11549;50.852;3.816;2022-11-15T08:52:13;11.40;99.90
22765;DHT22;11549;50.852;3.816;2022-11-15T08:54:41;11.70;99.90
22765;DHT22;11549;50.852;3.816;2022-11-15T08:57:10;11.90;99.90
22765;DHT22;11549;50.852;3.816;2022-11-15T08:59:38;12.10;99.90
22765;DHT22;11549;50.852;3.816;2022-11-15T09:02:10;12.30;99.90
22765;DHT22;11549;50.852;3.816;2022-11-15T09:04:41;12.70;99.90
22765;DHT22;11549;50.852;3.816;2022-11-15T09:07:10;12.80;99.90
22765;DHT22;11549;50.852;3.816;2022-11-15T09:09:39;13.10;99.90
22765;DHT22;11549;50.852;3.816;2022-11-15T09:12:08;13.40;99.90
22765;DHT22;11549;50.852;3.816;2022-11-15T09:14:36;13.60;99.90
22765;DHT22;11549;50.852;3.816;2022-11-15T09:17:07;13.70;99.90
22765;DHT22;11549;50.852;3.816;2022-11-15T09:19:36;13.70;99.90
22765;DHT22;11549;50.852;3.816;2022-11-15T09:22:07;14.00;99.90
22765;DHT22;11549;50.852;3.816;2022-11-15T09:24:35;13.80;99.90
22765;DHT22;11549;50.852;3.816;2022-11-15T09:27:04;13.40;99.90
22765;DHT22;11549;50.852;3.816;2022-11-15T09:29:32;13.50;99.90
22765;DHT22;11549;50.852;3.816;2022-11-15T09:32:00;13.50;99.90
22765;DHT22;11549;50.852;3.816;2022-11-15T09:34:29;13.30;99.90
22765;DHT22;11549;50.852;3.816;2022-11-15T09:36:57;13.00;99.90
22765;DHT22;11549;50.852;3.816;2022-11-15T09:39:29;13.10;99.90
22765;DHT22;11549;50.852;3.816;2022-11-15T09:42:14;13.10;99.90
22765;DHT22;11549;50.852;3.816;2022-11-15T09:45:04;13.00;99.90
22765;DHT22;11549;50.852;3.816;2022-11-15T09:47:55;13.20;99.90
22765;DHT22;11549;50.852;3.816;2022-11-15T09:50:32;13.50;99.90
22765;DHT22;11549;50.852;3.816;2022-11-15T09:53:02;13.80;99.90
22765;DHT22;11549;50.852;3.816;2022-11-15T09:55:38;14.20;99.90
22765;DHT22;11549;50.852;3.816;2022-11-15T09:58:18;14.40;99.90
22765;DHT22;11549;50.852;3.816;2022-11-15T10:00:49;14.00;99.90
22765;DHT22;11549;50.852;3.816;2022-11-15T10:03:26;13.60;99.90
22765;DHT22;11549;50.852;3.816;2022-11-15T10:05:57;13.60;99.90
22765;DHT22;11549;50.852;3.816;2022-11-15T10:08:40;13.60;99.90
22765;DHT22;11549;50.852;3.816;2022-11-15T10:11:15;13.40;99.90
22765;DHT22;11549;50.852;3.816;2022-11-15T10:14:10;13.40;99.90
22765;DHT22;11549;50.852;3.816;2022-11-15T10:19:42;13.30;99.90
22765;DHT22;11549;50.852;3.816;2022-11-15T10:22:24;13.30;99.90
22765;DHT22;11549;50.852;3.816;2022-11-15T10:25:03;13.40;99.90
22765;DHT22;11549;50.852;3.816;2022-11-15T10:27:40;13.60;99.90
22765;DHT22;11549;50.852;3.816;2022-11-15T10:30:12;13.60;99.90
22765;DHT22;11549;50.852;3.816;2022-11-15T10:32:43;13.40;99.90
22765;DHT22;11549;50.852;3.816;2022-11-15T10:35:21;13.20;99.90
22765;DHT22;11549;50.852;3.816;2022-11-15T10:37:50;13.10;99.90
22765;DHT22;11549;50.852;3.816;2022-11-15T10:40:20;12.90;99.90
22765;DHT22;11549;50.852;3.816;2022-11-15T10:43:05;12.80;99.90
22765;DHT22;11549;50.852;3.816;2022-11-15T10:45:34;12.80;99.90
22765;DHT22;11549;50.852;3.816;2022-11-15T10:48:24;12.90;99.90
22765;DHT22;11549;50.852;3.816;2022-11-15T10:50:54;13.00;99.90
22765;DHT22;11549;50.852;3.816;2022-11-15T10:53:32;13.10;99.90
22765;DHT22;11549;50.852;3.816;2022-11-15T10:56:05;13.20;99.90
22765;DHT22;11549;50.852;3.816;2022-11-15T10:58:39;13.20;99.90
22765;DHT22;11549;50.852;3.816;2022-11-15T11:01:14;13.30;99.90
22765;DHT22;11549;50.852;3.816;2022-11-15T11:03:44;13.10;99.90
22765;DHT22;11549;50.852;3.816;2022-11-15T11:06:15;13.00;99.90
22765;DHT22;11549;50.852;3.816;2022-11-15T11:08:55;13.00;99.90
22765;DHT22;11549;50.852;3.816;2022-11-15T11:11:24;13.10;99.90
22765;DHT22;11549;50.852;3.816;2022-11-15T11:13:54;13.20;99.90
22765;DHT22;11549;50.852;3.816;2022-11-15T11:16:40;13.10;99.90
22765;DHT22;11549;50.852;3.816;2022-11-15T11:19:31;13.10;99.90
22765;DHT22;11549;50.852;3.816;2022-11-15T11:22:06;13.00;99.90
22765;DHT22;11549;50.852;3.816;2022-11-15T11:24:43;12.90;99.90
22765;DHT22;11549;50.852;3.816;2022-11-15T11:27:19;13.00;99.90
22765;DHT22;11549;50.852;3.816;2022-11-15T11:30:02;13.00;99.90
22765;DHT22;11549;50.852;3.816;2022-11-15T11:32:44;13.10;99.90
22765;DHT22;11549;50.852;3.816;2022-11-15T11:35:24;13.10;99.90
22765;DHT22;11549;50.852;3.816;2022-11-15T11:38:03;13.00;99.90
22765;DHT22;11549;50.852;3.816;2022-11-15T11:40:39;13.00;99.90
22765;DHT22;11549;50.852;3.816;2022-11-15T11:43:15;13.10;99.90
22765;DHT22;11549;50.852;3.816;2022-11-15T11:46:02;13.10;99.90
22765;DHT22;11549;50.852;3.816;2022-11-15T11:48:41;13.10;99.90
22765;DHT22;11549;50.852;3.816;2022-11-15T11:51:16;13.00;99.90
22765;DHT22;11549;50.852;3.816;2022-11-15T11:53:51;13.10;99.90
22765;DHT22;11549;50.852;3.816;2022-11-15T11:56:24;13.10;99.90
22765;DHT22;11549;50.852;3.816;2022-11-15T11:58:54;13.10;99.90
22765;DHT22;11549;50.852;3.816;2022-11-15T12:01:29;13.10;99.90
22765;DHT22;11549;50.852;3.816;2022-11-15T12:04:05;13.00;99.90
22765;DHT22;11549;50.852;3.816;2022-11-15T12:06:40;13.10;99.90
22765;DHT22;11549;50.852;3.816;2022-11-15T12:09:14;13.10;99.90
22765;DHT22;11549;50.852;3.816;2022-11-15T12:11:55;12.90;99.90
22765;DHT22;11549;50.852;3.816;2022-11-15T12:14:32;13.00;99.90
22765;DHT22;11549;50.852;3.816;2022-11-15T12:17:03;12.90;99.90
22765;DHT22;11549;50.852;3.816;2022-11-15T12:19:31;12.90;99.90
22765;DHT22;11549;50.852;3.816;2022-11-15T12:22:03;12.90;99.90
22765;DHT22;11549;50.852;3.816;2022-11-15T12:24:38;12.90;99.90
22765;DHT22;11549;50.852;3.816;2022-11-15T12:27:15;13.00;99.90
22765;DHT22;11549;50.852;3.816;2022-11-15T12:29:55;13.00;99.90
22765;DHT22;11549;50.852;3.816;2022-11-15T12:32:28;13.10;99.90
22765;DHT22;11549;50.852;3.816;2022-11-15T12:34:58;13.10;99.90
22765;DHT22;11549;50.852;3.816;2022-11-15T12:40:20;13.30;99.90
22765;DHT22;11549;50.852;3.816;2022-11-15T12:43:02;13.20;99.90
22765;DHT22;11549;50.852;3.816;2022-11-15T12:45:32;13.20;99.90
22765;DHT22;11549;50.852;3.816;2022-11-15T12:51:07;13.30;99.90
22765;DHT22;11549;50.852;3.816;2022-11-15T12:53:35;13.20;99.90
22765;DHT22;11549;50.852;3.816;2022-11-15T12:56:23;13.20;99.90
22765;DHT22;11549;50.852;3.816;2022-11-15T12:58:55;13.10;99.90
22765;DHT22;11549;50.852;3.816;2022-11-15T13:04:27;13.20;99.90
22765;DHT22;11549;50.852;3.816;2022-11-15T13:06:59;13.30;99.90
22765;DHT22;11549;50.852;3.816;2022-11-15T13:09:51;13.30;99.90
22765;DHT22;11549;50.852;3.816;2022-11-15T13:15:39;13.30;99.90
22765;DHT22;11549;50.852;3.816;2022-11-15T13:18:37;13.30;99.90
22765;DHT22;11549;50.852;3.816;2022-11-15T13:21:20;13.30;99.90
22765;DHT22;11549;50.852;3.816;2022-11-15T13:24:13;13.30;99.90
22765;DHT22;11549;50.852;3.816;2022-11-15T13:26:41;13.30;99.90
22765;DHT22;11549;50.852;3.816;2022-11-15T13:29:16;13.30;99.90
22765;DHT22;11549;50.852;3.816;2022-11-15T13:31:45;13.10;99.90
22765;DHT22;11549;50.852;3.816;2022-11-15T13:34:22;13.30;99.90
22765;DHT22;11549;50.852;3.816;2022-11-15T13:37:27;13.20;99.90
22765;DHT22;11549;50.852;3.816;2022-11-15T13:40:00;13.30;99.90
22765;DHT22;11549;50.852;3.816;2022-11-15T13:42:38;13.30;99.90
22765;DHT22;11549;50.852;3.816;2022-11-15T13:45:14;13.30;99.90
22765;DHT22;11549;50.852;3.816;2022-11-15T13:47:43;13.30;99.90
22765;DHT22;11549;50.852;3.816;2022-11-15T13:50:12;13.20;99.90
22765;DHT22;11549;50.852;3.816;2022-11-15T13:52:43;13.30;99.90
22765;DHT22;11549;50.852;3.816;2022-11-15T13:55:16;13.30;99.90
22765;DHT22;11549;50.852;3.816;2022-11-15T13:57:48;13.20;99.90
22765;DHT22;11549;50.852;3.816;2022-11-15T14:00:30;13.30;99.90
22765;DHT22;11549;50.852;3.816;2022-11-15T14:03:07;13.10;99.90
22765;DHT22;11549;50.852;3.816;2022-11-15T14:05:35;12.90;99.90
22765;DHT22;11549;50.852;3.816;2022-11-15T14:08:22;12.80;99.90
22765;DHT22;11549;50.852;3.816;2022-11-15T14:11:09;12.80;99.90
22765;DHT22;11549;50.852;3.816;2022-11-15T14:13:40;12.80;99.90
22765;DHT22;11549;50.852;3.816;2022-11-15T14:16:14;12.70;99.90
22765;DHT22;11549;50.852;3.816;2022-11-15T14:18:45;12.60;99.90
22765;DHT22;11549;50.852;3.816;2022-11-15T14:21:15;12.60;99.90
22765;DHT22;11549;50.852;3.816;2022-11-15T14:23:43;12.70;99.90
22765;DHT22;11549;50.852;3.816;2022-11-15T14:26:28;12.80;99.90
22765;DHT22;11549;50.852;3.816;2022-11-15T14:28:57;12.80;99.90
22765;DHT22;11549;50.852;3.816;2022-11-15T14:31:45;12.80;99.90
22765;DHT22;11549;50.852;3.816;2022-11-15T14:34:14;12.70;99.90
22765;DHT22;11549;50.852;3.816;2022-11-15T14:36:42;12.60;99.90
22765;DHT22;11549;50.852;3.816;2022-11-15T14:39:10;12.50;99.90
22765;DHT22;11549;50.852;3.816;2022-11-15T14:41:40;12.50;99.90
22765;DHT22;11549;50.852;3.816;2022-11-15T14:44:10;12.50;99.90
22765;DHT22;11549;50.852;3.816;2022-11-15T14:46:39;12.30;99.90
22765;DHT22;11549;50.852;3.816;2022-11-15T14:49:07;12.40;99.90
22765;DHT22;11549;50.852;3.816;2022-11-15T14:51:36;12.40;99.90
22765;DHT22;11549;50.852;3.816;2022-11-15T14:54:04;12.30;99.90
22765;DHT22;11549;50.852;3.816;2022-11-15T14:56:33;12.30;99.90
22765;DHT22;11549;50.852;3.816;2022-11-15T14:59:02;12.40;99.90
22765;DHT22;11549;50.852;3.816;2022-11-15T15:01:31;12.40;99.90
22765;DHT22;11549;50.852;3.816;2022-11-15T15:04:00;12.30;99.90
22765;DHT22;11549;50.852;3.816;2022-11-15T15:06:28;12.20;99.90
22765;DHT22;11549;50.852;3.816;2022-11-15T15:08:57;12.10;99.90
22765;DHT22;11549;50.852;3.816;2022-11-15T15:11:27;12.20;99.90
22765;DHT22;11549;50.852;3.816;2022-11-15T15:13:56;12.20;99.90
22765;DHT22;11549;50.852;3.816;2022-11-15T15:16:29;12.20;99.90
22765;DHT22;11549;50.852;3.816;2022-11-15T15:18:57;12.20;99.90
22765;DHT22;11549;50.852;3.816;2022-11-15T15:21:27;12.20;99.90
22765;DHT22;11549;50.852;3.816;2022-11-15T15:24:03;12.20;99.90
22765;DHT22;11549;50.852;3.816;2022-11-15T15:26:32;12.20;99.90
22765;DHT22;11549;50.852;3.816;2022-11-15T15:29:03;12.10;99.90
22765;DHT22;11549;50.852;3.816;2022-11-15T15:31:33;12.20;99.90
22765;DHT22;11549;50.852;3.816;2022-11-15T15:34:01;12.30;99.90
22765;DHT22;11549;50.852;3.816;2022-11-15T15:36:30;12.30;99.90
22765;DHT22;11549;50.852;3.816;2022-11-15T15:38:58;12.30;99.90
22765;DHT22;11549;50.852;3.816;2022-11-15T15:41:26;12.40;99.90
22765;DHT22;11549;50.852;3.816;2022-11-15T15:43:55;12.30;99.90
22765;DHT22;11549;50.852;3.816;2022-11-15T15:46:24;12.20;99.90
22765;DHT22;11549;50.852;3.816;2022-11-15T15:48:54;12.20;99.90
22765;DHT22;11549;50.852;3.816;2022-11-15T15:51:22;12.10;99.90
22765;DHT22;11549;50.852;3.816;2022-11-15T15:53:50;12.10;99.90
22765;DHT22;11549;50.852;3.816;2022-11-15T15:56:24;12.30;99.90
22765;DHT22;11549;50.852;3.816;2022-11-15T15:58:52;12.30;99.90
22765;DHT22;11549;50.852;3.816;2022-11-15T16:01:22;12.40;99.90
22765;DHT22;11549;50.852;3.816;2022-11-15T16:03:53;12.30;99.90
22765;DHT22;11549;50.852;3.816;2022-11-15T16:06:38;12.30;99.90
22765;DHT22;11549;50.852;3.816;2022-11-15T16:09:12;12.40;99.90
22765;DHT22;11549;50.852;3.816;2022-11-15T16:11:43;12.30;99.90
22765;DHT22;11549;50.852;3.816;2022-11-15T16:14:12;12.40;99.90
22765;DHT22;11549;50.852;3.816;2022-11-15T16:16:40;12.40;99.90
22765;DHT22;11549;50.852;3.816;2022-11-15T16:19:10;12.40;99.90
22765;DHT22;11549;50.852;3.816;2022-11-15T16:21:39;12.50;99.90
22765;DHT22;11549;50.852;3.816;2022-11-15T16:24:08;12.50;99.90
22765;DHT22;11549;50.852;3.816;2022-11-15T16:26:37;12.50;99.90